Time;durP1;ratioP1;P1;durP2;ratioP2;P2;SDS_P1;SDS_P2;PMS_P1;PMS_P2;Temp;Humidity;BMP_temperature;BMP_pressure;BME280_temperature;BME280_humidity;BME280_pressure;Samples;Min_cycle;Max_cycle;Signal;HPM_P1;HPM_P2
2021/12/28 00:00:08;;;;;;;2.75;1.60;;;10.30;59.60;;;;;;21372;6650;66693;-82
2021/12/28 00:02:34;;;;;;;1.67;1.57;;;10.20;59.50;;;;;;21366;6650;66811;-82
2021/12/28 00:04:59;;;;;;;2.27;1.70;;;10.00;60.30;;;;;;21163;6650;301017;-83
2021/12/28 00:07:26;;;;;;;3.00;2.00;;;10.40;59.60;;;;;;21161;6650;303071;-86
2021/12/28 00:09:51;;;;;;;1.93;1.80;;;10.40;59.50;;;;;;21378;6650;66275;-83
2021/12/28 00:12:17;;;;;;;1.98;1.77;;;10.40;59.30;;;;;;21165;6650;276642;-83
2021/12/28 00:14:50;;;;;;;2.70;2.07;;;10.40;58.90;;;;;;21375;6650;66274;-83
2021/12/28 00:19:53;;;;;;;2.40;1.83;;;10.30;58.50;;;;;;21163;6650;306778;-84
2021/12/28 00:22:19;;;;;;;1.90;1.80;;;10.40;57.80;;;;;;21332;6665;67604;-82
2021/12/28 00:24:47;;;;;;;3.07;2.77;;;10.30;58.10;;;;;;21173;6650;330450;-84
2021/12/28 00:27:10;;;;;;;2.63;2.43;;;10.20;57.70;;;;;;21349;6650;91807;-83
2021/12/28 00:29:36;;;;;;;2.47;1.90;;;9.80;59.80;;;;;;21369;6650;89876;-82
2021/12/28 00:32:02;;;;;;;3.10;2.15;;;9.70;59.30;;;;;;21154;6650;321600;-82
2021/12/28 00:34:31;;;;;;;4.13;1.97;;;10.10;59.10;;;;;;21151;6650;320409;-83
2021/12/28 00:36:54;;;;;;;1.77;1.60;;;10.10;59.10;;;;;;21375;6650;66266;-83
2021/12/28 00:39:20;;;;;;;1.77;1.40;;;9.80;60.80;;;;;;21372;6650;66457;-82
2021/12/28 00:41:46;;;;;;;2.97;2.00;;;9.80;60.80;;;;;;21376;6650;67328;-84
2021/12/28 00:44:11;;;;;;;3.63;2.10;;;9.60;61.50;;;;;;21154;6650;301553;-87
2021/12/28 00:46:37;;;;;;;3.73;2.17;;;9.80;61.40;;;;;;21158;6650;288646;-85
2021/12/28 00:49:02;;;;;;;2.17;1.80;;;10.20;59.50;;;;;;21163;6650;299545;-87
2021/12/28 00:51:28;;;;;;;3.30;2.20;;;10.50;58.60;;;;;;21148;6650;302259;-87
2021/12/28 00:53:53;;;;;;;3.13;2.00;;;10.70;57.70;;;;;;21376;6648;66349;-88
2021/12/28 00:56:19;;;;;;;2.60;1.83;;;10.60;57.90;;;;;;21278;6649;70574;-86
2021/12/28 00:58:44;;;;;;;4.33;1.80;;;10.40;58.70;;;;;;21363;6649;66269;-88
2021/12/28 01:01:10;;;;;;;4.60;2.58;;;10.10;59.30;;;;;;21405;6650;66334;-88
2021/12/28 01:03:37;;;;;;;5.03;2.23;;;10.00;59.90;;;;;;21153;6650;273049;-85
2021/12/28 01:06:01;;;;;;;4.37;2.03;;;10.10;58.90;;;;;;21145;6650;272018;-85
2021/12/28 01:08:27;;;;;;;3.97;2.03;;;10.40;57.70;;;;;;21358;6650;70267;-87
2021/12/28 01:10:52;;;;;;;4.95;2.20;;;10.30;57.60;;;;;;21153;6650;330688;-86
2021/12/28 01:13:18;;;;;;;3.85;1.73;;;10.30;57.20;;;;;;21349;6650;66356;-86
2021/12/28 01:15:43;;;;;;;3.57;2.00;;;10.20;57.50;;;;;;21142;6650;300019;-87
2021/12/28 01:18:09;;;;;;;4.20;2.28;;;10.20;57.40;;;;;;21137;6650;301891;-86
2021/12/28 01:20:35;;;;;;;5.27;2.10;;;10.50;57.00;;;;;;21358;6650;66747;-89
2021/12/28 01:23:01;;;;;;;5.95;2.45;;;10.10;58.00;;;;;;21362;6650;70852;-87
2021/12/28 01:25:26;;;;;;;4.13;2.10;;;10.10;58.00;;;;;;21356;6650;75657;-88
2021/12/28 01:27:52;;;;;;;5.20;2.20;;;9.80;59.60;;;;;;21367;6650;72373;-86
2021/12/28 01:30:17;;;;;;;4.83;2.40;;;9.70;60.20;;;;;;21168;6650;300513;-88
2021/12/28 01:32:43;;;;;;;4.40;2.00;;;9.80;59.80;;;;;;21411;6650;73957;-86
2021/12/28 01:35:09;;;;;;;6.35;2.35;;;9.80;59.70;;;;;;21364;6650;66778;-85
2021/12/28 01:37:35;;;;;;;5.93;2.40;;;9.70;60.10;;;;;;21137;6650;314662;-85
2021/12/28 01:40:00;;;;;;;5.37;2.40;;;9.70;59.70;;;;;;21380;6650;66596;-87
2021/12/28 01:42:28;;;;;;;5.37;2.20;;;9.70;59.70;;;;;;21367;6650;66872;-85
2021/12/28 01:44:52;;;;;;;7.60;2.63;;;9.50;60.10;;;;;;21153;6650;281914;-88
2021/12/28 01:47:17;;;;;;;8.73;2.37;;;9.70;59.80;;;;;;21363;6650;67297;-85
2021/12/28 01:49:43;;;;;;;4.50;2.63;;;9.60;59.70;;;;;;21366;6650;67014;-86
2021/12/28 01:52:09;;;;;;;5.23;2.57;;;9.30;60.70;;;;;;21354;6650;66005;-86
2021/12/28 01:54:35;;;;;;;3.73;2.43;;;9.30;60.70;;;;;;21137;6650;301524;-86
2021/12/28 01:57:01;;;;;;;3.67;1.80;;;9.50;60.20;;;;;;21362;6650;66346;-87
2021/12/28 01:59:26;;;;;;;5.55;2.50;;;9.50;60.20;;;;;;21144;6650;317818;-88
2021/12/28 02:01:52;;;;;;;8.18;2.87;;;9.60;59.70;;;;;;21359;6650;67004;-85
2021/12/28 02:04:21;;;;;;;6.20;2.77;;;9.60;59.80;;;;;;21144;6648;272658;-87
2021/12/28 02:06:46;;;;;;;5.73;2.43;;;9.70;59.30;;;;;;21133;6649;304636;-85
2021/12/28 02:09:12;;;;;;;6.70;2.50;;;10.00;57.50;;;;;;21352;6649;66800;-88
2021/12/28 02:11:37;;;;;;;4.37;2.37;;;9.90;58.60;;;;;;21349;6650;72773;-85
2021/12/28 02:14:05;;;;;;;6.77;2.60;;;9.60;59.20;;;;;;21136;6650;301250;-88
2021/12/28 02:16:29;;;;;;;4.97;2.45;;;9.70;59.00;;;;;;21362;6650;67005;-85
2021/12/28 02:18:54;;;;;;;5.90;2.50;;;9.70;59.10;;;;;;21427;6650;66837;-86
2021/12/28 02:21:20;;;;;;;3.05;1.80;;;9.40;59.60;;;;;;21351;6650;66838;-87
2021/12/28 02:23:46;;;;;;;4.43;1.90;;;9.20;60.60;;;;;;21357;6650;69752;-85
2021/12/28 02:26:12;;;;;;;7.13;2.50;;;9.10;60.60;;;;;;21135;6650;286956;-88
2021/12/28 02:28:38;;;;;;;4.75;2.03;;;9.40;60.00;;;;;;21375;6650;66907;-86
2021/12/28 02:31:04;;;;;;;6.37;2.20;;;9.30;59.90;;;;;;21358;6650;66830;-85
2021/12/28 02:33:29;;;;;;;6.55;2.22;;;9.20;60.20;;;;;;21307;6665;69969;-85
2021/12/28 02:35:58;;;;;;;5.30;2.80;;;9.10;60.60;;;;;;21096;6665;273204;-85
2021/12/28 02:38:23;;;;;;;7.90;2.50;;;9.30;60.00;;;;;;21299;6665;66655;-86
2021/12/28 02:40:49;;;;;;;7.17;2.60;;;9.30;59.80;;;;;;21306;6665;67319;-85
2021/12/28 02:43:15;;;;;;;5.47;2.13;;;9.00;60.50;;;;;;21307;6665;88343;-87
2021/12/28 02:45:41;;;;;;;5.37;2.70;;;9.00;60.40;;;;;;21087;6665;331535;-88
2021/12/28 02:48:06;;;;;;;6.23;2.70;;;9.30;60.00;;;;;;20884;6650;303783;-85
2021/12/28 02:50:35;;;;;;;5.27;2.37;;;9.60;58.70;;;;;;21346;6650;66767;-86
2021/12/28 02:53:01;;;;;;;5.62;2.53;;;9.60;58.60;;;;;;21125;6650;301558;-89
2021/12/28 02:55:26;;;;;;;5.07;2.00;;;9.70;58.10;;;;;;21355;6650;66833;-86
2021/12/28 02:57:52;;;;;;;5.00;2.40;;;9.60;58.30;;;;;;21131;6650;309860;-90
2021/12/28 03:00:27;;;;;;;4.50;2.00;;;9.70;57.80;;;;;;21319;6650;66375;-86
2021/12/28 03:02:53;;;;;;;5.77;1.87;;;9.60;58.00;;;;;;21245;6650;66558;-89
2021/12/28 03:05:18;;;;;;;4.75;2.28;;;9.40;58.70;;;;;;21136;6650;299928;-87
2021/12/28 03:07:44;;;;;;;4.70;2.20;;;9.50;58.40;;;;;;21354;6650;67159;-87
2021/12/28 03:10:09;;;;;;;4.82;2.67;;;9.40;58.50;;;;;;21145;6650;303350;-87
2021/12/28 03:12:35;;;;;;;5.07;2.50;;;9.60;58.30;;;;;;21139;6650;276992;-85
2021/12/28 03:15:00;;;;;;;4.68;2.60;;;9.90;57.50;;;;;;21135;6650;287774;-85
2021/12/28 03:17:26;;;;;;;5.07;2.08;;;10.10;55.80;;;;;;21356;6648;67193;-88
2021/12/28 03:19:52;;;;;;;5.27;2.23;;;10.00;56.10;;;;;;21146;6649;301426;-85
2021/12/28 03:22:17;;;;;;;5.35;2.50;;;10.00;56.00;;;;;;21134;6649;330537;-86
2021/12/28 03:24:43;;;;;;;4.32;2.58;;;10.20;55.60;;;;;;21143;6650;271957;-85
2021/12/28 03:27:08;;;;;;;4.18;2.50;;;10.30;55.00;;;;;;21153;6650;276711;-89
2021/12/28 03:29:34;;;;;;;4.35;2.10;;;10.50;54.50;;;;;;21149;6650;332153;-86
2021/12/28 03:31:59;;;;;;;3.87;2.30;;;10.60;54.20;;;;;;21369;6650;66765;-86
2021/12/28 03:34:25;;;;;;;2.37;1.70;;;10.40;54.70;;;;;;21387;6650;66713;-89
2021/12/28 03:36:51;;;;;;;1.87;1.40;;;10.00;55.60;;;;;;21408;6650;67318;-89
2021/12/28 03:39:16;;;;;;;4.13;2.03;;;9.70;57.50;;;;;;21357;6650;69205;-86
2021/12/28 03:41:42;;;;;;;2.90;1.90;;;9.50;58.20;;;;;;21136;6650;301091;-89
2021/12/28 03:44:07;;;;;;;3.40;2.20;;;9.60;57.90;;;;;;21134;6650;335091;-88
2021/12/28 03:46:33;;;;;;;2.92;1.83;;;9.90;57.00;;;;;;21366;6650;66255;-87
2021/12/28 03:48:58;;;;;;;2.53;1.77;;;9.90;57.20;;;;;;21352;6650;66271;-87
2021/12/28 03:51:24;;;;;;;2.50;1.93;;;9.70;57.80;;;;;;21351;6650;67742;-86
2021/12/28 03:53:50;;;;;;;3.27;1.97;;;9.50;58.40;;;;;;21149;6650;273611;-89
2021/12/28 03:56:15;;;;;;;2.97;1.80;;;9.70;58.40;;;;;;21140;6650;300609;-89
2021/12/28 03:58:41;;;;;;;3.33;1.90;;;9.90;57.60;;;;;;21347;6650;66264;-86
2021/12/28 04:01:06;;;;;;;3.73;2.10;;;10.00;56.70;;;;;;21128;6650;302923;-87
2021/12/28 04:03:32;;;;;;;2.90;1.80;;;10.00;56.40;;;;;;21142;6650;273098;-87
2021/12/28 04:05:59;;;;;;;2.50;1.93;;;10.30;55.90;;;;;;21135;6650;292215;-86
2021/12/28 04:08:24;;;;;;;3.80;2.13;;;10.50;55.40;;;;;;21136;6650;274887;-86
2021/12/28 04:10:54;;;;;;;4.30;2.17;;;10.70;55.10;;;;;;21136;6650;272815;-89
2021/12/28 04:13:14;;;;;;;4.85;2.22;;;10.80;54.50;;;;;;21105;6650;301533;-88
2021/12/28 04:15:40;;;;;;;5.27;2.07;;;10.90;54.10;;;;;;21362;6650;67201;-86
2021/12/28 04:18:05;;;;;;;6.23;2.13;;;10.70;54.60;;;;;;21323;6665;66863;-88
2021/12/28 04:20:31;;;;;;;3.07;2.17;;;10.30;55.50;;;;;;21097;6665;273584;-86
2021/12/28 04:22:56;;;;;;;3.17;1.87;;;10.30;55.70;;;;;;21099;6665;280006;-86
2021/12/28 04:25:22;;;;;;;3.20;1.50;;;10.50;55.30;;;;;;21317;6665;67567;-86
2021/12/28 04:27:47;;;;;;;2.77;2.00;;;10.40;55.60;;;;;;21090;6663;302868;-90
2021/12/28 04:30:13;;;;;;;2.15;1.60;;;10.50;55.90;;;;;;21359;6649;67914;-86
2021/12/28 04:32:38;;;;;;;2.13;1.53;;;10.30;56.10;;;;;;21351;6649;66460;-86
2021/12/28 04:35:04;;;;;;;3.10;1.73;;;10.10;56.70;;;;;;21130;6650;331996;-88
2021/12/28 04:37:30;;;;;;;2.70;1.83;;;10.20;57.00;;;;;;21355;6650;66287;-89
2021/12/28 04:39:56;;;;;;;2.47;1.53;;;9.90;58.70;;;;;;21348;6650;67251;-87
2021/12/28 04:42:24;;;;;;;3.13;1.53;;;9.90;58.70;;;;;;21352;6650;69410;-87
2021/12/28 04:44:50;;;;;;;4.43;1.87;;;9.70;59.20;;;;;;21346;6650;67334;-89
2021/12/28 04:47:13;;;;;;;3.27;1.80;;;9.40;60.10;;;;;;21340;6650;66886;-88
2021/12/28 04:49:39;;;;;;;3.08;2.10;;;9.40;60.70;;;;;;21147;6650;335173;-86
2021/12/28 04:52:05;;;;;;;3.97;1.80;;;9.60;60.40;;;;;;21167;6650;300092;-90
2021/12/28 04:54:31;;;;;;;4.23;2.03;;;10.00;58.70;;;;;;21385;6650;66533;-90
2021/12/28 04:56:57;;;;;;;2.93;2.00;;;10.00;58.70;;;;;;21135;6650;273355;-88
2021/12/28 04:59:22;;;;;;;2.75;1.90;;;10.10;58.90;;;;;;21136;6650;301462;-86
2021/12/28 05:01:48;;;;;;;1.90;1.63;;;10.30;58.30;;;;;;21352;6650;66351;-85
2021/12/28 05:04:13;;;;;;;2.90;1.50;;;10.20;59.00;;;;;;21369;6650;67209;-86
2021/12/28 05:06:39;;;;;;;3.83;1.80;;;10.00;59.00;;;;;;21357;6650;68692;-86
2021/12/28 05:09:04;;;;;;;2.30;1.93;;;9.80;60.60;;;;;;21130;6650;330328;-84
2021/12/28 05:11:33;;;;;;;1.90;1.80;;;9.90;61.00;;;;;;21353;6650;66272;-86
2021/12/28 05:14:00;;;;;;;2.75;1.83;;;10.00;59.80;;;;;;21091;6665;302024;-88
2021/12/28 05:16:29;;;;;;;2.73;1.70;;;10.00;59.80;;;;;;21309;6665;73227;-85
2021/12/28 05:18:51;;;;;;;1.90;1.80;;;10.00;59.70;;;;;;21079;6665;303403;-85
2021/12/28 05:21:16;;;;;;;2.63;2.17;;;10.10;59.60;;;;;;21136;6650;302014;-88
2021/12/28 05:23:42;;;;;;;2.37;1.90;;;10.40;59.00;;;;;;21139;6650;301945;-88
2021/12/28 05:26:08;;;;;;;1.73;1.60;;;10.50;58.40;;;;;;21356;6650;66455;-87
2021/12/28 05:28:34;;;;;;;3.10;1.93;;;10.50;58.40;;;;;;21355;6650;67538;-86
2021/12/28 05:31:00;;;;;;;1.95;1.70;;;10.00;59.70;;;;;;21349;6650;66774;-87
2021/12/28 05:33:29;;;;;;;1.83;1.73;;;10.00;59.70;;;;;;21402;6650;70785;-86
2021/12/28 05:35:55;;;;;;;1.70;1.60;;;9.80;61.30;;;;;;21155;6650;272744;-86
2021/12/28 05:38:20;;;;;;;1.60;1.50;;;9.90;61.00;;;;;;21349;6650;66286;-86
2021/12/28 05:40:46;;;;;;;1.83;1.50;;;10.00;60.00;;;;;;21337;6648;67421;-86
2021/12/28 05:43:14;;;;;;;1.70;1.50;;;10.00;59.80;;;;;;21127;6649;302385;-87
2021/12/28 05:45:38;;;;;;;1.12;1.12;;;10.00;59.80;;;;;;21134;6650;305952;-86
2021/12/28 05:48:03;;;;;;;1.30;1.20;;;10.30;58.70;;;;;;21353;6650;66395;-87
2021/12/28 05:50:29;;;;;;;1.40;1.27;;;10.30;58.70;;;;;;21349;6650;67347;-86
2021/12/28 05:52:54;;;;;;;1.60;1.50;;;10.10;59.20;;;;;;21301;6650;66328;-87
2021/12/28 05:55:21;;;;;;;1.83;1.70;;;10.10;60.00;;;;;;21064;6664;272953;-85
2021/12/28 05:57:47;;;;;;;1.80;1.57;;;10.00;59.30;;;;;;21308;6664;67276;-86
2021/12/28 06:00:13;;;;;;;1.67;1.37;;;10.10;59.40;;;;;;21311;6665;67374;-89
2021/12/28 06:02:38;;;;;;;1.90;1.70;;;9.90;60.60;;;;;;21141;6650;330091;-90
2021/12/28 06:05:03;;;;;;;1.60;1.50;;;10.10;59.50;;;;;;21364;6650;67091;-87
2021/12/28 06:07:30;;;;;;;1.30;1.20;;;9.90;60.70;;;;;;21355;6650;66393;-86
2021/12/28 06:09:55;;;;;;;2.40;1.43;;;10.00;59.90;;;;;;21440;6650;66290;-91
2021/12/28 06:12:21;;;;;;;1.90;1.58;;;9.80;61.20;;;;;;21138;6650;308321;-87
2021/12/28 06:14:46;;;;;;;3.70;1.90;;;10.00;60.00;;;;;;21134;6650;331034;-87
2021/12/28 06:17:12;;;;;;;1.73;1.50;;;10.30;59.10;;;;;;21355;6650;89092;-86
2021/12/28 06:19:38;;;;;;;1.42;1.33;;;10.10;59.50;;;;;;21344;6650;66725;-86
2021/12/28 06:22:04;;;;;;;1.20;1.10;;;10.10;59.40;;;;;;21350;6650;66807;-86
2021/12/28 06:24:29;;;;;;;1.47;0.90;;;9.90;60.90;;;;;;21359;6650;66774;-86
2021/12/28 06:26:55;;;;;;;2.50;1.13;;;9.80;61.50;;;;;;21356;6650;66640;-89
2021/12/28 06:29:21;;;;;;;1.10;1.00;;;9.70;62.00;;;;;;21144;6650;274108;-86
2021/12/28 06:31:46;;;;;;;1.90;1.20;;;9.90;62.10;;;;;;21304;6665;67273;-89
2021/12/28 06:34:12;;;;;;;1.97;0.90;;;9.90;61.80;;;;;;21305;6665;73347;-87
2021/12/28 06:36:37;;;;;;;0.80;0.80;;;9.80;62.10;;;;;;21311;6665;68445;-86
2021/12/28 06:39:03;;;;;;;0.63;0.63;;;9.60;63.10;;;;;;21357;6650;66740;-88
2021/12/28 06:41:29;;;;;;;1.30;0.80;;;9.60;63.20;;;;;;21131;6650;328200;-89
2021/12/28 06:43:55;;;;;;;1.37;0.70;;;9.90;62.00;;;;;;21364;6650;67026;-87
2021/12/28 06:46:21;;;;;;;1.40;0.60;;;9.90;62.40;;;;;;21360;6650;66785;-86
2021/12/28 06:48:47;;;;;;;1.60;0.60;;;10.00;61.30;;;;;;21155;6650;297790;-87
2021/12/28 06:51:13;;;;;;;0.57;0.57;;;10.00;60.70;;;;;;21396;6648;66512;-90
2021/12/28 06:53:38;;;;;;;0.60;0.60;;;10.10;60.60;;;;;;21373;6649;66652;-89
2021/12/28 06:56:05;;;;;;;0.73;0.70;;;10.10;60.10;;;;;;21146;6649;308852;-89
2021/12/28 06:58:30;;;;;;;0.60;0.60;;;10.10;60.10;;;;;;21148;6650;301381;-87
2021/12/28 07:00:56;;;;;;;0.80;0.80;;;10.40;59.00;;;;;;21158;6650;300467;-89
2021/12/28 07:03:21;;;;;;;0.80;0.77;;;10.70;58.20;;;;;;21172;6650;327765;-86
2021/12/28 07:05:47;;;;;;;0.80;0.73;;;11.00;57.20;;;;;;21354;6650;66792;-87
2021/12/28 07:08:14;;;;;;;0.62;0.62;;;10.90;57.50;;;;;;21351;6650;67208;-86
2021/12/28 07:10:38;;;;;;;0.60;0.55;;;10.60;58.20;;;;;;21129;6650;276303;-87
2021/12/28 07:13:04;;;;;;;1.10;0.70;;;10.60;57.50;;;;;;21132;6650;301998;-86
2021/12/28 07:15:29;;;;;;;0.50;0.50;;;10.90;56.90;;;;;;21142;6650;296524;-86
2021/12/28 07:17:55;;;;;;;0.98;0.40;;;11.10;56.10;;;;;;21373;6650;66725;-89
2021/12/28 07:20:21;;;;;;;0.50;0.50;;;10.80;57.30;;;;;;21377;6650;69119;-87
2021/12/28 07:22:47;;;;;;;1.10;0.50;;;10.60;58.00;;;;;;21369;6650;67732;-85
2021/12/28 07:25:13;;;;;;;0.47;0.47;;;10.60;58.00;;;;;;21137;6650;301214;-86
2021/12/28 07:27:38;;;;;;;0.40;0.40;;;10.60;57.30;;;;;;21417;6650;77186;-88
2021/12/28 07:30:04;;;;;;;0.47;0.47;;;10.60;57.50;;;;;;21117;6650;295710;-87
2021/12/28 07:32:30;;;;;;;0.43;0.43;;;10.80;56.90;;;;;;21344;6650;66295;-87
2021/12/28 07:34:56;;;;;;;0.40;0.40;;;10.70;57.10;;;;;;21364;6650;66651;-86
2021/12/28 07:37:21;;;;;;;0.45;0.40;;;10.50;57.50;;;;;;21129;6650;331810;-86
2021/12/28 07:39:50;;;;;;;0.40;0.40;;;10.60;57.20;;;;;;21361;6650;70594;-86
2021/12/28 07:42:13;;;;;;;0.77;0.30;;;10.40;57.90;;;;;;21337;6650;77080;-86
2021/12/28 07:44:39;;;;;;;0.80;0.50;;;10.40;57.90;;;;;;21145;6650;275184;-86
2021/12/28 07:47:05;;;;;;;0.40;0.27;;;10.50;57.80;;;;;;21348;6650;67284;-87
2021/12/28 07:49:30;;;;;;;0.43;0.40;;;10.50;57.80;;;;;;21346;6650;66786;-86
2021/12/28 07:51:56;;;;;;;1.08;0.40;;;10.40;58.30;;;;;;21129;6650;305967;-88
2021/12/28 07:54:22;;;;;;;0.60;0.40;;;10.60;58.10;;;;;;21352;6650;66890;-87
2021/12/28 07:56:48;;;;;;;0.30;0.30;;;10.60;58.10;;;;;;21352;6650;66308;-88
2021/12/28 07:59:14;;;;;;;0.40;0.40;;;10.50;58.60;;;;;;21124;6650;301807;-87
2021/12/28 08:01:39;;;;;;;0.37;0.30;;;10.60;58.00;;;;;;21341;6650;68577;-87
2021/12/28 08:04:05;;;;;;;0.40;0.40;;;10.70;58.20;;;;;;21356;6648;67421;-86
2021/12/28 08:06:30;;;;;;;0.50;0.50;;;10.60;58.60;;;;;;21134;6649;272321;-86
2021/12/28 08:08:56;;;;;;;0.37;0.37;;;10.70;58.10;;;;;;21357;6650;67098;-86
2021/12/28 08:11:22;;;;;;;0.40;0.40;;;10.80;58.20;;;;;;21095;6664;272471;-86
2021/12/28 08:13:47;;;;;;;0.97;0.40;;;11.00;58.40;;;;;;21308;6664;66398;-85
2021/12/28 08:16:12;;;;;;;0.97;0.40;;;11.00;57.30;;;;;;21147;6650;300504;-85
2021/12/28 08:18:38;;;;;;;0.30;0.30;;;11.20;57.50;;;;;;21141;6650;273862;-85
2021/12/28 08:21:04;;;;;;;0.30;0.20;;;11.40;56.60;;;;;;21336;6650;70238;-85
2021/12/28 08:23:30;;;;;;;0.45;0.30;;;11.50;56.60;;;;;;21135;6650;301414;-85
2021/12/28 08:25:55;;;;;;;0.40;0.40;;;11.50;56.50;;;;;;21137;6650;329687;-85
2021/12/28 08:28:21;;;;;;;0.65;0.40;;;11.80;55.90;;;;;;21349;6650;67686;-84
2021/12/28 08:30:47;;;;;;;0.40;0.40;;;11.70;56.20;;;;;;21373;6650;66383;-86
2021/12/28 08:33:12;;;;;;;0.95;0.30;;;11.50;56.80;;;;;;21176;6650;283847;-85
2021/12/28 08:35:39;;;;;;;0.30;0.30;;;11.50;56.30;;;;;;21362;6650;66691;-86
2021/12/28 08:38:03;;;;;;;0.47;0.47;;;11.50;56.70;;;;;;21345;6650;66267;-87
2021/12/28 08:40:29;;;;;;;0.50;0.30;;;11.30;57.20;;;;;;21135;6650;301871;-88
2021/12/28 08:42:55;;;;;;;0.30;0.30;;;11.40;57.10;;;;;;21004;6650;284591;-86
2021/12/28 08:45:20;;;;;;;1.90;0.60;;;11.70;56.50;;;;;;21347;6650;68409;-87
2021/12/28 08:47:46;;;;;;;0.30;0.30;;;11.70;56.70;;;;;;21330;6650;66887;-86
2021/12/28 08:50:12;;;;;;;0.60;0.57;;;11.50;57.30;;;;;;21115;6650;316019;-86
2021/12/28 08:52:38;;;;;;;0.35;0.35;;;11.80;56.00;;;;;;21128;6650;309643;-86
2021/12/28 08:55:07;;;;;;;0.40;0.40;;;11.80;56.00;;;;;;21334;6650;66833;-86
2021/12/28 08:57:36;;;;;;;0.40;0.40;;;11.80;56.30;;;;;;21311;6665;68156;-87
2021/12/28 08:59:59;;;;;;;0.50;0.30;;;11.60;57.00;;;;;;20991;6665;274963;-87
2021/12/28 09:02:24;;;;;;;0.90;0.30;;;11.70;56.60;;;;;;21123;6650;303695;-88
2021/12/28 09:04:50;;;;;;;0.47;0.37;;;12.00;56.30;;;;;;21139;6650;304077;-89
2021/12/28 09:07:16;;;;;;;0.30;0.30;;;12.20;55.60;;;;;;21142;6650;329664;-86
2021/12/28 09:09:41;;;;;;;1.00;0.40;;;12.40;55.10;;;;;;21089;6665;272731;-88
2021/12/28 09:12:07;;;;;;;0.20;0.20;;;12.50;54.80;;;;;;21105;6665;274920;-87
2021/12/28 09:14:33;;;;;;;0.37;0.37;;;12.60;54.30;;;;;;21325;6663;67980;-85
2021/12/28 09:16:58;;;;;;;1.20;0.40;;;12.40;54.80;;;;;;21322;6664;66873;-85
2021/12/28 09:19:24;;;;;;;0.20;0.20;;;12.20;55.70;;;;;;21318;6664;66448;-86
2021/12/28 09:21:49;;;;;;;0.30;0.30;;;11.90;56.50;;;;;;21097;6664;334104;-86
2021/12/28 09:24:15;;;;;;;0.27;0.20;;;11.90;57.10;;;;;;21373;6650;72666;-86
2021/12/28 09:26:40;;;;;;;1.48;0.30;;;11.90;56.70;;;;;;21393;6650;66671;-82
2021/12/28 09:29:06;;;;;;;0.70;0.20;;;11.80;57.20;;;;;;21185;6650;301150;-82
2021/12/28 09:31:33;;;;;;;0.40;0.30;;;11.90;57.30;;;;;;21171;6650;300900;-81
2021/12/28 09:33:58;;;;;;;0.20;0.20;;;12.50;56.40;;;;;;21156;6650;273210;-86
2021/12/28 09:36:24;;;;;;;0.20;0.20;;;12.40;56.30;;;;;;21180;6650;273957;-85
2021/12/28 09:38:49;;;;;;;0.37;0.30;;;12.70;55.80;;;;;;21166;6650;300511;-85
2021/12/28 09:41:15;;;;;;;0.20;0.20;;;12.80;55.30;;;;;;21402;6650;66727;-85
2021/12/28 09:43:40;;;;;;;0.40;0.30;;;12.70;55.80;;;;;;21182;6650;333218;-85
2021/12/28 09:46:07;;;;;;;0.30;0.30;;;12.60;56.30;;;;;;21420;6650;72568;-85
2021/12/28 09:48:39;;;;;;;0.40;0.20;;;12.60;56.30;;;;;;21181;6650;304055;-85
2021/12/28 09:50:59;;;;;;;0.20;0.20;;;12.60;56.20;;;;;;21282;6665;66878;-87
2021/12/28 09:53:24;;;;;;;0.33;0.33;;;12.60;56.50;;;;;;21135;6665;302216;-85
2021/12/28 09:55:50;;;;;;;0.67;0.30;;;12.60;56.50;;;;;;21356;6665;67384;-83
2021/12/28 09:58:15;;;;;;;0.20;0.20;;;12.60;56.80;;;;;;21338;6665;66394;-87
2021/12/28 10:00:41;;;;;;;0.20;0.20;;;12.40;57.40;;;;;;21173;6650;303678;-85
2021/12/28 10:03:07;;;;;;;0.83;0.30;;;12.50;57.50;;;;;;21398;6650;69652;-85
2021/12/28 10:05:33;;;;;;;0.20;0.20;;;12.50;57.60;;;;;;21160;6650;300964;-85
2021/12/28 10:07:58;;;;;;;0.30;0.30;;;12.60;57.30;;;;;;21147;6650;276230;-86
2021/12/28 10:10:23;;;;;;;0.57;0.43;;;12.90;56.90;;;;;;21155;6650;271452;-84
2021/12/28 10:12:49;;;;;;;0.20;0.20;;;13.10;56.70;;;;;;21162;6650;304429;-85
2021/12/28 10:15:17;;;;;;;0.57;0.20;;;13.20;56.20;;;;;;21378;6650;67287;-85
2021/12/28 10:17:43;;;;;;;0.20;0.20;;;13.10;56.60;;;;;;21334;6665;68281;-85
2021/12/28 10:20:08;;;;;;;0.30;0.30;;;12.80;57.30;;;;;;21115;6665;272363;-84
2021/12/28 10:22:46;;;;;;;0.20;0.20;;;12.80;58.60;;;;;;21321;6665;67102;-83
2021/12/28 10:25:17;;;;;;;1.03;0.30;;;12.80;58.20;;;;;;21337;6663;67383;-83
2021/12/28 10:27:52;;;;;;;0.20;0.20;;;12.60;58.80;;;;;;21077;6664;300634;-83
2021/12/28 10:30:28;;;;;;;0.30;0.30;;;12.80;58.90;;;;;;21109;6664;275666;-84
2021/12/28 10:32:59;;;;;;;0.13;0.13;;;13.10;58.20;;;;;;21345;6664;66358;-84
2021/12/28 10:35:25;;;;;;;0.20;0.20;;;13.00;58.10;;;;;;21129;6664;329174;-84
2021/12/28 10:37:53;;;;;;;0.43;0.37;;;13.10;57.50;;;;;;21124;6664;302042;-85
2021/12/28 10:40:19;;;;;;;0.70;0.37;;;13.30;57.10;;;;;;21079;6664;301676;-84
2021/12/28 10:42:45;;;;;;;0.70;0.20;;;13.50;56.30;;;;;;21125;6664;302420;-84
2021/12/28 10:45:10;;;;;;;0.20;0.20;;;13.60;55.70;;;;;;21341;6664;66785;-84
2021/12/28 10:47:36;;;;;;;0.60;0.20;;;13.50;56.20;;;;;;21166;6665;271530;-86
2021/12/28 10:50:22;;;;;;;0.20;0.20;;;13.30;56.70;;;;;;21351;6665;66927;-86
2021/12/28 10:52:51;;;;;;;0.20;0.20;;;13.30;56.60;;;;;;21392;6650;67450;-85
2021/12/28 10:55:22;;;;;;;0.20;0.20;;;13.10;57.40;;;;;;21381;6650;67297;-87
2021/12/28 10:57:48;;;;;;;0.97;0.30;;;12.80;58.00;;;;;;21305;6650;66331;-84
2021/12/28 11:00:28;;;;;;;0.40;0.30;;;12.80;59.20;;;;;;21163;6650;329027;-85
2021/12/28 11:02:53;;;;;;;0.20;0.20;;;12.80;58.50;;;;;;21179;6650;270878;-85
2021/12/28 11:05:32;;;;;;;0.35;0.35;;;13.20;58.10;;;;;;21306;6650;66893;-86
2021/12/28 11:07:57;;;;;;;0.20;0.20;;;13.30;58.10;;;;;;21350;6665;67246;-85
2021/12/28 11:10:27;;;;;;;0.30;0.30;;;13.20;58.30;;;;;;21137;6665;304462;-84
2021/12/28 11:12:54;;;;;;;0.17;0.17;;;13.20;58.30;;;;;;21353;6665;66415;-85
2021/12/28 11:15:20;;;;;;;0.20;0.20;;;13.30;58.60;;;;;;21368;6665;67506;-87
2021/12/28 11:17:47;;;;;;;0.33;0.33;;;13.30;58.60;;;;;;21148;6650;302865;-85
2021/12/28 11:20:12;;;;;;;0.13;0.13;;;13.30;58.60;;;;;;21423;6650;65891;-85
2021/12/28 11:22:39;;;;;;;0.20;0.20;;;13.40;59.20;;;;;;21188;6650;300332;-85
2021/12/28 11:25:17;;;;;;;0.47;0.23;;;13.40;58.50;;;;;;21401;6650;66818;-85
2021/12/28 11:27:43;;;;;;;0.37;0.30;;;13.40;58.20;;;;;;21096;6650;330480;-85
2021/12/28 11:30:12;;;;;;;0.20;0.20;;;13.50;58.10;;;;;;21397;6650;66667;-85
2021/12/28 11:32:37;;;;;;;0.40;0.40;;;13.50;58.30;;;;;;21372;6665;71061;-87
2021/12/28 11:35:03;;;;;;;0.43;0.40;;;13.30;58.90;;;;;;21180;6665;276516;-87
2021/12/28 11:37:29;;;;;;;0.20;0.20;;;13.40;59.10;;;;;;21339;6663;66909;-87
2021/12/28 11:40:00;;;;;;;0.50;0.30;;;13.50;59.30;;;;;;21140;6664;300514;-86
2021/12/28 11:42:26;;;;;;;0.83;0.20;;;13.60;58.80;;;;;;21336;6664;66852;-84
2021/12/28 11:44:52;;;;;;;0.37;0.37;;;13.60;59.00;;;;;;21101;6664;306255;-83
2021/12/28 11:47:17;;;;;;;0.30;0.30;;;13.80;58.10;;;;;;21099;6664;319749;-84
2021/12/28 11:49:44;;;;;;;0.30;0.30;;;14.10;57.40;;;;;;21312;6664;66497;-83
2021/12/28 11:52:08;;;;;;;0.30;0.30;;;14.00;57.30;;;;;;21079;6664;307583;-83
2021/12/28 11:54:34;;;;;;;0.40;0.40;;;14.10;56.80;;;;;;21301;6664;71282;-83
2021/12/28 11:57:02;;;;;;;0.50;0.30;;;14.00;57.10;;;;;;21303;6665;67425;-83
2021/12/28 11:59:28;;;;;;;0.37;0.37;;;13.80;57.70;;;;;;21296;6665;89177;-84
2021/12/28 12:01:56;;;;;;;0.90;0.60;;;13.60;58.30;;;;;;21078;6665;282545;-82
2021/12/28 12:04:29;;;;;;;0.33;0.33;;;14.00;57.10;;;;;;21143;6650;300709;-85
2021/12/28 12:07:04;;;;;;;0.67;0.37;;;14.00;57.10;;;;;;21341;6665;66667;-86
2021/12/28 12:09:27;;;;;;;0.40;0.40;;;13.90;57.20;;;;;;21005;6650;301466;-82
2021/12/28 12:12:13;;;;;;;0.30;0.30;;;14.00;57.10;;;;;;21348;6650;66294;-82
2021/12/28 12:17:28;;;;;;;0.20;0.20;;;13.90;57.60;;;;;;21315;6665;69669;-83
2021/12/28 12:19:57;;;;;;;0.20;0.20;;;13.90;57.60;;;;;;21310;6665;66464;-83
2021/12/28 12:22:31;;;;;;;0.30;0.30;;;13.70;58.40;;;;;;21304;6665;68832;-81
2021/12/28 12:25:00;;;;;;;0.60;0.60;;;13.50;59.00;;;;;;21099;6665;301577;-82
2021/12/28 12:27:53;;;;;;;0.50;0.50;;;13.70;58.70;;;;;;21306;6665;71189;-82
2021/12/28 12:30:32;;;;;;;0.40;0.40;;;13.50;59.10;;;;;;21298;6665;66894;-82
2021/12/28 12:33:07;;;;;;;0.40;0.40;;;13.50;59.00;;;;;;21240;6665;66982;-83
2021/12/28 12:35:36;;;;;;;0.30;0.30;;;13.40;59.50;;;;;;21305;6665;66418;-81
2021/12/28 12:38:01;;;;;;;0.40;0.40;;;13.30;59.90;;;;;;21137;6665;303110;-82
2021/12/28 12:40:47;;;;;;;0.40;0.40;;;13.50;59.20;;;;;;20744;6650;300408;-82
2021/12/28 12:43:12;;;;;;;0.30;0.30;;;13.80;58.30;;;;;;20916;6650;302946;-83
2021/12/28 12:45:52;;;;;;;0.37;0.37;;;14.10;57.40;;;;;;21333;6650;68908;-83